createdAt,value
2023-04-19T00:01:28.412Z,103114.38
2023-04-19T00:04:33.903Z,103112.50
2023-04-19T00:07:37.581Z,103114.13
2023-04-19T00:10:41.116Z,103108.88
2023-04-19T00:13:44.676Z,103107.09
2023-04-19T00:16:48.410Z,103105.28
2023-04-19T00:19:53.469Z,103100.00
2023-04-19T00:22:58.644Z,103101.81
2023-04-19T00:26:04.666Z,103098.31
2023-04-19T00:29:09.135Z,103099.06
2023-04-19T00:32:12.629Z,103092.91
2023-04-19T00:35:17.584Z,103091.09
2023-04-19T00:38:20.996Z,103096.25
2023-04-19T00:41:24.509Z,103098.81
2023-04-19T00:44:28.380Z,103097.84
2023-04-19T00:47:32.147Z,103097.81
2023-04-19T00:50:37.399Z,103099.31
2023-04-19T00:53:42.795Z,103098.41
2023-04-19T00:56:47.147Z,103094.75
2023-04-19T00:59:51.241Z,103094.69
2023-04-19T01:02:55.722Z,103087.69
2023-04-19T01:06:00.841Z,103090.38
2023-04-19T01:09:05.116Z,103086.75
2023-04-19T01:12:08.823Z,103081.41
2023-04-19T01:15:13.093Z,103089.97
2023-04-19T01:18:17.106Z,103083.66
2023-04-19T01:21:23.128Z,103081.75
2023-04-19T01:24:27.988Z,103095.63
2023-04-19T01:27:32.239Z,103082.66
2023-04-19T01:30:38.041Z,103078.25
2023-04-19T01:33:41.573Z,103088.63
2023-04-19T01:36:45.047Z,103091.06
2023-04-19T01:39:49.953Z,103084.94
2023-04-19T01:42:54.071Z,103085.78
2023-04-19T01:45:57.600Z,103094.38
2023-04-19T01:49:01.119Z,103090.84
2023-04-19T01:52:04.758Z,103089.75
2023-04-19T01:55:10.648Z,103088.00
2023-04-19T01:58:14.207Z,103088.78
2023-04-19T02:01:17.872Z,103091.25
2023-04-19T02:04:22.393Z,103086.91
2023-04-19T02:07:26.005Z,103098.88
2023-04-19T02:10:31.005Z,103090.13
2023-04-19T02:13:34.536Z,103083.91
2023-04-19T02:16:38.052Z,103089.84
2023-04-19T02:19:41.508Z,103091.34
2023-04-19T02:22:45.177Z,103092.84
2023-04-19T02:25:50.046Z,103095.25
2023-04-19T02:28:55.299Z,103094.28
2023-04-19T02:31:59.680Z,103090.75
2023-04-19T02:35:03.531Z,103094.09
2023-04-19T02:38:07.021Z,103095.78
2023-04-19T02:41:11.871Z,103083.66
2023-04-19T02:44:15.578Z,103089.72
2023-04-19T02:47:19.241Z,103090.34
2023-04-19T02:50:22.962Z,103090.97
2023-04-19T02:53:26.507Z,103093.38
2023-04-19T02:56:31.381Z,103089.81
2023-04-19T02:59:34.856Z,103091.34
2023-04-19T03:02:39.582Z,103089.22
2023-04-19T03:05:43.256Z,103088.91
2023-04-19T03:08:47.020Z,103099.28
2023-04-19T03:11:51.867Z,103088.72
2023-04-19T03:14:55.358Z,103094.41
2023-04-19T03:17:58.990Z,103084.88
2023-04-19T03:21:02.616Z,103091.75
2023-04-19T03:24:06.661Z,103089.03
2023-04-19T03:27:11.588Z,103088.16
2023-04-19T03:30:15.492Z,103097.16
2023-04-19T03:33:19.168Z,103090.31
2023-04-19T03:36:23.452Z,103087.56
2023-04-19T03:39:26.948Z,103090.00
2023-04-19T03:42:32.060Z,103085.59
2023-04-19T03:45:35.583Z,103087.06
2023-04-19T03:48:39.268Z,103091.47
2023-04-19T03:51:42.795Z,103087.06
2023-04-19T03:54:46.364Z,103086.75
2023-04-19T03:57:51.505Z,103085.59
2023-04-19T04:00:54.995Z,103088.16
2023-04-19T04:03:58.698Z,103087.38
2023-04-19T04:07:02.587Z,103089.09
2023-04-19T04:10:07.629Z,103079.41
2023-04-19T04:13:12.511Z,103088.88
2023-04-19T04:16:16.118Z,103088.03
2023-04-19T04:19:22.009Z,103084.72
2023-04-19T04:22:25.949Z,103086.50
2023-04-19T04:25:30.064Z,103089.78
2023-04-19T04:28:34.981Z,103082.59
2023-04-19T04:31:38.607Z,103084.97
2023-04-19T04:34:43.056Z,103097.91
2023-04-19T04:37:46.627Z,103085.94
2023-04-19T04:40:53.640Z,103089.59
2023-04-19T04:44:12.166Z,103089.53
2023-04-19T04:47:16.223Z,103086.94
2023-04-19T04:50:19.849Z,103089.63
2023-04-19T04:53:23.340Z,103094.00
2023-04-19T04:56:27.502Z,103086.84
2023-04-19T04:59:32.583Z,103087.03
2023-04-19T05:02:36.503Z,103092.13
2023-04-19T05:05:40.260Z,103092.19
2023-04-19T05:08:44.016Z,103090.00
2023-04-19T05:11:49.148Z,103086.47
2023-04-19T05:14:55.171Z,103089.22
2023-04-19T05:17:58.777Z,103089.16
2023-04-19T05:21:03.194Z,103089.44
2023-04-19T05:24:10.192Z,103089.09
2023-04-19T05:27:14.019Z,103087.47
2023-04-19T05:30:19.193Z,103084.97
2023-04-19T05:33:22.798Z,103087.28
2023-04-19T05:36:26.965Z,103088.19
2023-04-19T05:39:30.638Z,103086.94
2023-04-19T05:42:34.167Z,103083.63
2023-04-19T05:45:39.332Z,103088.94
2023-04-19T05:48:42.896Z,103085.78
2023-04-19T05:51:46.460Z,103080.56
2023-04-19T05:54:50.013Z,103089.19
2023-04-19T05:57:53.590Z,103082.28
2023-04-19T06:00:58.540Z,103083.59
2023-04-19T06:04:02.788Z,103075.75
2023-04-19T06:07:13.492Z,103064.53
2023-04-19T06:10:21.495Z,103064.44
2023-04-19T06:13:25.085Z,103068.25
2023-04-19T06:16:30.175Z,103061.53
2023-04-19T06:19:34.115Z,103064.31
2023-04-19T06:22:44.193Z,103071.34
2023-04-19T06:25:48.999Z,103070.13
2023-04-19T06:28:52.702Z,103069.13
2023-04-19T06:31:57.694Z,103060.94
2023-04-19T06:35:01.297Z,103059.97
2023-04-19T06:38:04.826Z,103060.81
2023-04-19T06:41:09.303Z,103058.22
2023-04-19T06:44:13.445Z,103055.75
2023-04-19T06:47:18.404Z,103060.81
2023-04-19T06:50:22.168Z,103053.91
2023-04-19T06:53:26.817Z,103057.91
2023-04-19T06:56:46.674Z,103050.91
2023-04-19T06:59:50.413Z,103058.75
2023-04-19T07:02:55.460Z,103053.09
2023-04-19T07:05:59.186Z,103049.53
2023-04-19T07:09:03.798Z,103048.09
2023-04-19T07:12:08.282Z,103046.44
2023-04-19T07:15:24.972Z,103043.13
2023-04-19T07:18:29.947Z,103042.22
2023-04-19T07:21:35.130Z,103033.44
2023-04-19T07:24:40.289Z,103025.72
2023-04-19T07:27:43.946Z,103024.53
2023-04-19T07:30:47.581Z,103025.88
2023-04-19T07:33:52.698Z,103024.34
2023-04-19T07:36:56.320Z,103017.31
2023-04-19T07:39:59.876Z,103014.56
2023-04-19T07:43:03.739Z,103017.34
2023-04-19T07:46:12.834Z,103003.53
2023-04-19T07:49:17.838Z,102997.50
2023-04-19T07:52:22.079Z,103007.88
2023-04-19T07:55:25.682Z,102999.22
2023-04-19T07:58:29.186Z,102992.09
2023-04-19T08:01:33.001Z,102992.25
2023-04-19T08:04:39.476Z,102980.75
2023-04-19T08:07:43.706Z,102981.66
2023-04-19T08:10:47.184Z,102976.25
2023-04-19T08:14:02.922Z,102971.84
2023-04-19T08:17:25.586Z,102949.19
2023-04-19T08:20:32.126Z,102963.25
2023-04-19T08:23:47.440Z,102964.81
2023-04-19T08:26:54.718Z,102956.16
2023-04-19T08:29:58.409Z,102962.16
2023-04-19T08:33:02.756Z,102954.88
2023-04-19T08:36:09.051Z,102947.16
2023-04-19T08:39:24.618Z,102957.81
2023-04-19T08:42:37.155Z,102949.03
2023-04-19T08:45:41.998Z,102936.81
2023-04-19T08:48:48.329Z,102944.50
2023-04-19T08:51:54.390Z,102937.16
2023-04-19T08:54:59.168Z,102936.53
2023-04-19T08:58:09.615Z,102937.56
2023-04-19T09:01:26.810Z,102922.34
2023-04-19T09:04:37.891Z,102916.47
2023-04-19T09:07:43.546Z,102930.25
2023-04-19T09:10:55.933Z,102919.63
2023-04-19T09:14:10.318Z,102906.91
2023-04-19T09:17:18.570Z,102910.91
2023-04-19T09:20:38.394Z,102902.94
2023-04-19T09:23:49.001Z,102902.16
2023-04-19T09:26:57.898Z,102894.31
2023-04-19T09:30:04.030Z,102896.00
2023-04-19T09:33:08.888Z,102877.75
2023-04-19T09:36:14.192Z,102876.16
2023-04-19T09:39:31.779Z,102872.69
2023-04-19T09:45:54.097Z,102868.38
2023-04-19T09:49:25.217Z,102866.56
2023-04-19T09:52:31.524Z,102852.09
2023-04-19T09:55:48.935Z,102849.47
2023-04-19T09:59:12.887Z,102858.56
2023-04-19T10:02:27.287Z,102843.16
2023-04-19T10:05:31.858Z,102850.47
2023-04-19T10:08:35.542Z,102845.91
2023-04-19T10:11:42.927Z,102830.88
2023-04-19T10:14:47.291Z,102838.13
2023-04-19T10:17:51.427Z,102819.44
2023-04-19T10:21:02.311Z,102823.84
2023-04-19T10:24:07.231Z,102814.88
2023-04-19T10:27:13.958Z,102810.69
2023-04-19T10:30:22.632Z,102801.91
2023-04-19T10:33:28.524Z,102813.28
2023-04-19T10:36:32.034Z,102798.53
2023-04-19T10:39:43.403Z,102790.22
2023-04-19T10:43:24.202Z,102783.94
2023-04-19T10:46:42.604Z,102781.28
2023-04-19T10:49:47.229Z,102783.81
2023-04-19T10:52:50.763Z,102786.97
2023-04-19T10:55:54.387Z,102777.31
2023-04-19T10:59:24.334Z,102763.66
2023-04-19T11:02:32.833Z,102754.84
2023-04-19T11:06:19.230Z,102754.44
2023-04-19T11:09:24.793Z,102745.94
2023-04-19T11:12:28.911Z,102748.66
2023-04-19T11:15:33.836Z,102737.00
2023-04-19T11:18:37.400Z,102734.72
2023-04-19T11:21:41.949Z,102733.03
2023-04-19T11:24:48.622Z,102727.31
2023-04-19T11:27:54.082Z,102721.00
2023-04-19T11:30:59.430Z,102708.97
2023-04-19T11:34:05.046Z,102718.16
2023-04-19T11:37:12.262Z,102711.84
2023-04-19T11:40:18.742Z,102703.91
2023-04-19T11:43:22.424Z,102702.66
2023-04-19T11:46:27.389Z,102720.25
2023-04-19T11:49:33.635Z,102692.56
2023-04-19T11:52:37.217Z,102699.47
2023-04-19T11:55:43.963Z,102694.81
2023-04-19T11:58:49.119Z,102694.53
2023-04-19T12:01:54.103Z,102672.81
2023-04-19T12:04:57.794Z,102690.47
2023-04-19T12:08:08.045Z,102687.47
2023-04-19T12:11:11.673Z,102681.31
2023-04-19T12:14:18.585Z,102681.44
2023-04-19T12:17:23.712Z,102700.44
2023-04-19T12:20:32.872Z,102684.63
2023-04-19T12:23:36.375Z,102686.56
2023-04-19T12:26:56.235Z,102678.97
2023-04-19T12:30:00.016Z,102672.28
2023-04-19T12:33:05.735Z,102684.03
2023-04-19T12:36:09.888Z,102680.75
2023-04-19T12:39:13.565Z,102676.03
2023-04-19T12:42:17.273Z,102666.78
2023-04-19T12:45:21.823Z,102650.19
2023-04-19T12:48:27.092Z,102658.00
2023-04-19T12:51:31.903Z,102653.75
2023-04-19T12:54:35.484Z,102650.97
2023-04-19T12:57:39.209Z,102648.69
2023-04-19T13:00:43.156Z,102656.16
2023-04-19T13:03:48.284Z,102658.00
2023-04-19T13:06:51.974Z,102645.81
2023-04-19T13:09:56.712Z,102644.19
2023-04-19T13:13:00.806Z,102643.59
2023-04-19T13:16:04.380Z,102641.81
2023-04-19T13:19:09.359Z,102639.34
2023-04-19T13:22:14.941Z,102649.72
2023-04-19T13:25:18.451Z,102627.25
2023-04-19T13:28:21.974Z,102631.44
2023-04-19T13:31:27.143Z,102623.03
2023-04-19T13:34:33.341Z,102615.84
2023-04-19T13:37:36.879Z,102619.19
2023-04-19T13:40:40.596Z,102626.59
2023-04-19T13:43:44.037Z,102628.09
2023-04-19T13:46:47.783Z,102618.56
2023-04-19T13:49:53.069Z,102619.41
2023-04-19T13:52:56.783Z,102619.59
2023-04-19T13:56:00.913Z,102607.63
2023-04-19T13:59:04.554Z,102620.19
2023-04-19T14:02:08.253Z,102612.75
2023-04-19T14:05:13.248Z,102596.13
2023-04-19T14:08:16.758Z,102617.94
2023-04-19T14:11:20.896Z,102603.47
2023-04-19T14:14:25.688Z,102598.13
2023-04-19T14:17:29.325Z,102620.22
2023-04-19T14:20:34.416Z,102609.41
2023-04-19T14:23:38.134Z,102603.97
2023-04-19T14:26:41.609Z,102603.72
2023-04-19T14:29:45.236Z,102608.53
2023-04-19T14:32:48.902Z,102599.25
2023-04-19T14:35:54.171Z,102587.16
2023-04-19T14:38:57.646Z,102575.81
2023-04-19T14:42:01.144Z,102586.09
2023-04-19T14:45:07.140Z,102584.13
2023-04-19T14:48:10.852Z,102575.22
2023-04-19T14:51:15.736Z,102578.81
2023-04-19T14:54:21.539Z,102572.59
2023-04-19T14:57:25.844Z,102561.00
2023-04-19T15:00:29.505Z,102575.03
2023-04-19T15:03:33.205Z,102574.53
2023-04-19T15:06:38.299Z,102574.22
2023-04-19T15:09:41.875Z,102570.03
2023-04-19T15:12:45.730Z,102570.41
2023-04-19T15:15:49.326Z,102565.16
2023-04-19T15:18:53.800Z,102573.94
2023-04-19T15:21:58.987Z,102575.03
2023-04-19T15:25:02.901Z,102566.34
2023-04-19T15:28:06.756Z,102566.13
2023-04-19T15:31:10.478Z,102573.75
2023-04-19T15:34:14.079Z,102567.91
2023-04-19T15:37:18.962Z,102561.13
2023-04-19T15:40:24.676Z,102567.03
2023-04-19T15:43:29.090Z,102581.13
2023-04-19T15:46:32.589Z,102574.41
2023-04-19T15:49:36.138Z,102573.50
2023-04-19T15:52:41.302Z,102596.41
2023-04-19T15:55:46.960Z,102580.78
2023-04-19T15:58:50.437Z,102589.59
2023-04-19T16:01:53.980Z,102571.34
2023-04-19T16:04:57.617Z,102581.13
2023-04-19T16:08:08.958Z,102580.22
2023-04-19T16:11:12.463Z,102576.63
2023-04-19T16:14:16.266Z,102581.81
2023-04-19T16:17:19.827Z,102592.31
2023-04-19T16:20:23.356Z,102576.53
2023-04-19T16:23:28.259Z,102581.88
2023-04-19T16:26:31.940Z,102585.34
2023-04-19T16:29:35.623Z,102580.81
2023-04-19T16:32:39.369Z,102590.75
2023-04-19T16:35:43.116Z,102577.75
2023-04-19T16:38:47.948Z,102579.56
2023-04-19T16:41:52.031Z,102584.88
2023-04-19T16:44:55.531Z,102585.84
2023-04-19T16:47:59.119Z,102572.66
2023-04-19T16:51:02.704Z,102563.16
2023-04-19T16:54:07.678Z,102574.44
2023-04-19T16:57:11.583Z,102577.13
2023-04-19T17:00:16.311Z,102565.00
2023-04-19T17:03:20.351Z,102570.19
2023-04-19T17:06:24.011Z,102564.94
2023-04-19T17:09:29.331Z,102558.91
2023-04-19T17:12:32.913Z,102568.53
2023-04-19T17:15:38.619Z,102565.09
2023-04-19T17:18:42.433Z,102570.38
2023-04-19T17:21:45.974Z,102567.75
2023-04-19T17:24:50.964Z,102561.69
2023-04-19T17:27:54.550Z,102553.88
2023-04-19T17:30:58.551Z,102566.03
2023-04-19T17:34:02.090Z,102558.25
2023-04-19T17:37:05.831Z,102553.00
2023-04-19T17:40:12.296Z,102560.81
2023-04-19T17:43:15.963Z,102560.88
2023-04-19T17:46:20.908Z,102554.78
2023-04-19T17:49:26.542Z,102558.28
2023-04-19T17:52:30.095Z,102560.03
2023-04-19T17:55:35.449Z,102560.09
2023-04-19T17:58:38.994Z,102560.94
2023-04-19T18:01:42.634Z,102568.00
2023-04-19T18:04:46.209Z,102561.03
2023-04-19T18:07:50.884Z,102559.28
2023-04-19T18:10:55.712Z,102559.31
2023-04-19T18:13:59.524Z,102567.22
2023-04-19T18:17:05.624Z,102559.38
2023-04-19T18:20:13.698Z,102562.03
2023-04-19T18:23:17.377Z,102562.09
2023-04-19T18:26:22.631Z,102565.59
2023-04-19T18:29:26.684Z,102573.50
2023-04-19T18:32:31.879Z,102572.66
2023-04-19T18:35:37.001Z,102569.19
2023-04-19T18:38:40.524Z,102572.69
2023-04-19T18:41:45.453Z,102572.75
2023-04-19T18:44:54.194Z,102579.72
2023-04-19T18:47:58.562Z,102573.63
2023-04-19T18:51:02.233Z,102579.78
2023-04-19T18:54:06.015Z,102584.13
2023-04-19T18:57:23.244Z,102586.78
2023-04-19T19:00:30.184Z,102598.97
2023-04-19T19:06:41.289Z,102601.63
2023-04-19T19:09:55.093Z,102596.38
2023-04-19T19:13:00.953Z,102602.47
2023-04-19T19:16:06.310Z,102605.97
2023-04-19T19:19:10.784Z,102602.47
2023-04-19T19:22:26.087Z,102599.00
2023-04-19T19:25:33.021Z,102594.63
2023-04-19T19:28:37.944Z,102602.47
2023-04-19T19:31:43.111Z,102591.16
2023-04-19T19:37:54.642Z,102594.63
2023-04-19T19:44:06.523Z,102592.91
2023-04-19T19:47:10.895Z,102591.09
2023-04-19T19:51:01.125Z,102583.25
2023-04-19T19:53:38.732Z,102584.09
2023-04-19T19:57:00.591Z,102587.59
2023-04-19T20:00:36.819Z,102583.22
2023-04-19T20:03:38.088Z,102581.47
2023-04-19T20:09:51.030Z,102565.75
2023-04-19T20:12:57.008Z,102562.25
2023-04-19T20:16:02.806Z,102558.78
2023-04-19T20:19:10.270Z,102552.66
2023-04-19T20:22:13.978Z,102554.38
2023-04-19T20:25:17.676Z,102556.06
2023-04-19T20:28:21.305Z,102559.50
2023-04-19T20:31:26.483Z,102542.94
2023-04-19T20:34:30.181Z,102544.72
2023-04-19T20:37:33.731Z,102543.81
2023-04-19T20:40:37.396Z,102543.81
2023-04-19T20:43:41.064Z,102542.91
2023-04-19T20:46:46.098Z,102530.69
2023-04-19T20:49:49.637Z,102541.13
2023-04-19T20:52:53.347Z,102531.53
2023-04-19T20:55:56.998Z,102534.97
2023-04-19T20:59:00.678Z,102531.44
2023-04-19T21:02:05.899Z,102533.22
2023-04-19T21:05:09.931Z,102534.91
2023-04-19T21:08:15.183Z,102517.47
2023-04-19T21:11:18.708Z,102517.59
2023-04-19T21:14:22.369Z,102522.84
2023-04-19T21:17:27.244Z,102528.06
2023-04-19T21:20:30.985Z,102525.44
2023-04-19T21:23:34.510Z,102522.78
2023-04-19T21:26:38.105Z,102515.72
2023-04-19T21:29:41.572Z,102519.22
2023-04-19T21:32:51.007Z,102515.72
2023-04-19T21:35:54.783Z,102504.41
2023-04-19T21:38:58.433Z,102498.28
2023-04-19T21:42:01.995Z,102494.88
2023-04-19T21:45:07.283Z,102494.91
2023-04-19T21:48:12.718Z,102485.38
2023-04-19T21:51:17.382Z,102485.38
2023-04-19T21:54:32.831Z,102492.34
2023-04-19T21:57:38.459Z,102483.66
2023-04-19T22:00:42.287Z,102474.91
2023-04-19T22:03:47.743Z,102477.53
2023-04-19T22:06:51.568Z,102479.28
2023-04-19T22:09:56.942Z,102474.97
2023-04-19T22:13:02.455Z,102465.41
2023-04-19T22:16:08.767Z,102460.19
2023-04-19T22:19:14.022Z,102449.72
2023-04-19T22:22:17.830Z,102430.56
2023-04-19T22:25:21.572Z,102417.50
2023-04-19T22:28:25.140Z,102416.63
2023-04-19T22:31:28.836Z,102407.91
2023-04-19T22:34:33.869Z,102404.44
2023-04-19T22:37:37.598Z,102392.25
2023-04-19T22:40:41.603Z,102380.03
2023-04-19T22:43:45.514Z,102380.03
2023-04-19T22:46:50.005Z,102374.78
2023-04-19T22:49:55.601Z,102361.72
2023-04-19T22:52:59.225Z,102356.50
2023-04-19T22:56:02.768Z,102353.88
2023-04-19T22:59:08.296Z,102344.31
2023-04-19T23:02:11.851Z,102352.16
2023-04-19T23:05:18.169Z,102333.88
2023-04-19T23:08:22.482Z,102333.88
2023-04-19T23:11:26.941Z,102344.31
2023-04-19T23:14:30.559Z,102348.69
2023-04-19T23:17:34.798Z,102345.19
2023-04-19T23:20:39.877Z,102336.47
2023-04-19T23:23:43.609Z,102352.16
2023-04-19T23:26:47.207Z,102339.09
2023-04-19T23:29:50.742Z,102349.53
2023-04-19T23:32:54.482Z,102360.78
2023-04-19T23:35:59.489Z,102358.13
2023-04-19T23:39:03.128Z,102345.94
2023-04-19T23:42:06.856Z,102356.38
2023-04-19T23:45:11.500Z,102338.97
2023-04-19T23:48:15.093Z,102329.38
2023-04-19T23:51:21.022Z,102328.50
2023-04-19T23:54:26.209Z,102331.97
2023-04-19T23:57:29.818Z,102325.00
